Time;durP1;ratioP1;P1;durP2;ratioP2;P2;SDS_P1;SDS_P2;PMS_P1;PMS_P2;Temp;Humidity;BMP_temperature;BMP_pressure;BME280_temperature;BME280_humidity;BME280_pressure;Samples;Min_cycle;Max_cycle;Signal;HPM_P1;HPM_P2
2023/12/17 00:00:59;;;;;;;24.87;12.53;;;8.20;99.90;;;;;;5059668;28;20241;-79
2023/12/17 00:03:26;;;;;;;22.10;11.50;;;8.20;99.90;;;;;;5077833;28;20171;-79
2023/12/17 00:05:52;;;;;;;22.33;11.87;;;8.20;99.90;;;;;;5078265;28;20251;-79
2023/12/17 00:08:19;;;;;;;23.80;12.53;;;8.20;99.90;;;;;;5077422;28;20698;-79
2023/12/17 00:10:46;;;;;;;22.40;11.47;;;8.20;99.90;;;;;;5077430;28;20178;-79
2023/12/17 00:13:12;;;;;;;20.30;12.13;;;8.20;99.90;;;;;;5078017;28;20171;-79
2023/12/17 00:15:37;;;;;;;25.40;12.50;;;8.20;99.90;;;;;;5072881;28;20351;-79
2023/12/17 00:18:05;;;;;;;23.50;12.17;;;8.20;99.90;;;;;;5056991;28;20252;-79
2023/12/17 00:20:31;;;;;;;18.67;11.50;;;8.20;99.90;;;;;;5057019;28;20277;-79
2023/12/17 00:22:57;;;;;;;20.83;11.67;;;8.20;99.90;;;;;;5057138;28;20199;-79
2023/12/17 00:25:22;;;;;;;24.17;11.97;;;8.20;99.90;;;;;;5057266;28;20250;-78
2023/12/17 00:27:47;;;;;;;25.07;11.00;;;8.20;99.90;;;;;;5057258;28;20190;-79
2023/12/17 00:30:13;;;;;;;21.10;11.70;;;8.20;99.90;;;;;;5057433;28;20187;-79
2023/12/17 00:32:39;;;;;;;23.20;11.67;;;8.20;99.90;;;;;;5056671;28;20216;-79
2023/12/17 00:35:04;;;;;;;22.30;12.37;;;8.20;99.90;;;;;;5070002;28;20250;-79
2023/12/17 00:37:30;;;;;;;23.63;12.13;;;8.20;99.90;;;;;;5076306;28;20182;-79
2023/12/17 00:39:55;;;;;;;25.63;12.40;;;8.20;99.90;;;;;;5077551;28;20191;-79
2023/12/17 00:42:21;;;;;;;16.73;11.13;;;8.20;99.90;;;;;;5077119;28;20199;-79
2023/12/17 00:44:47;;;;;;;18.63;12.00;;;8.20;99.90;;;;;;5077187;28;20263;-78
2023/12/17 00:47:13;;;;;;;23.07;11.93;;;8.20;99.90;;;;;;5065454;28;20175;-79
2023/12/17 00:49:38;;;;;;;20.90;12.77;;;8.20;99.90;;;;;;5057245;28;20203;-79
2023/12/17 00:52:04;;;;;;;21.07;12.53;;;8.20;99.90;;;;;;5056918;28;20176;-78
2023/12/17 00:54:29;;;;;;;25.13;11.90;;;8.20;99.90;;;;;;5056257;28;20203;-79
2023/12/17 00:56:55;;;;;;;20.97;11.70;;;8.20;99.90;;;;;;5056012;28;20214;-79
2023/12/17 00:59:21;;;;;;;22.03;11.63;;;8.20;99.90;;;;;;5058499;28;20194;-79
2023/12/17 01:01:46;;;;;;;19.77;11.33;;;8.20;99.90;;;;;;5057858;28;20267;-79
2023/12/17 01:04:12;;;;;;;21.10;12.30;;;8.20;99.90;;;;;;5058036;28;20523;-79
2023/12/17 01:06:37;;;;;;;24.60;12.53;;;8.20;99.90;;;;;;5057899;28;20239;-79
2023/12/17 01:09:03;;;;;;;23.63;12.87;;;8.20;99.90;;;;;;5057081;28;20211;-79
2023/12/17 01:11:28;;;;;;;21.73;12.43;;;8.20;99.90;;;;;;5057105;28;20171;-79
2023/12/17 01:13:54;;;;;;;18.27;12.63;;;8.20;99.90;;;;;;5056621;28;20199;-79
2023/12/17 01:16:19;;;;;;;21.17;12.50;;;8.20;99.90;;;;;;5056603;28;20287;-79
2023/12/17 01:18:45;;;;;;;20.17;13.63;;;8.10;99.90;;;;;;5056622;28;20636;-79
2023/12/17 01:21:10;;;;;;;21.97;13.27;;;8.20;99.90;;;;;;5056566;28;20167;-79
2023/12/17 01:23:37;;;;;;;19.97;13.13;;;8.10;99.90;;;;;;5056523;28;20521;-79
2023/12/17 01:26:03;;;;;;;25.77;13.93;;;8.20;99.90;;;;;;5055901;28;20175;-78
2023/12/17 01:28:28;;;;;;;23.07;14.17;;;8.20;99.90;;;;;;5056094;28;20191;-78
2023/12/17 01:30:54;;;;;;;22.03;14.33;;;8.20;99.90;;;;;;5055995;28;20175;-79
2023/12/17 01:33:19;;;;;;;21.70;13.93;;;8.20;99.90;;;;;;5055798;28;20183;-79
2023/12/17 01:35:45;;;;;;;17.70;13.67;;;8.20;99.90;;;;;;5075384;28;20198;-78
2023/12/17 01:38:11;;;;;;;21.43;13.83;;;8.20;99.90;;;;;;5075725;28;20721;-78
2023/12/17 01:40:39;;;;;;;24.43;14.23;;;8.20;99.90;;;;;;5076357;28;20209;-79
2023/12/17 01:43:06;;;;;;;26.30;15.00;;;8.20;99.90;;;;;;5076147;28;20174;-80
2023/12/17 01:45:32;;;;;;;19.43;14.17;;;8.10;99.90;;;;;;5076214;28;20190;-79
2023/12/17 01:47:57;;;;;;;22.10;14.90;;;8.20;99.90;;;;;;5076451;28;20175;-79
2023/12/17 01:50:24;;;;;;;21.23;14.90;;;8.10;99.90;;;;;;5063881;28;20187;-78
2023/12/17 01:52:50;;;;;;;25.53;14.87;;;8.10;99.90;;;;;;5055752;28;20258;-78
2023/12/17 01:55:15;;;;;;;27.50;15.07;;;8.10;99.90;;;;;;5055478;28;20292;-79
2023/12/17 01:57:41;;;;;;;21.00;13.87;;;8.10;99.90;;;;;;5055170;28;20172;-79
2023/12/17 02:00:07;;;;;;;21.10;15.80;;;8.10;99.90;;;;;;5056042;28;20257;-78
2023/12/17 02:02:33;;;;;;;26.97;14.27;;;8.10;99.90;;;;;;5054913;28;20176;-78
2023/12/17 02:05:01;;;;;;;20.50;14.80;;;8.20;99.90;;;;;;5055043;28;20614;-78
2023/12/17 02:07:26;;;;;;;27.93;14.20;;;8.10;99.90;;;;;;5054326;28;20203;-79
2023/12/17 02:09:52;;;;;;;23.23;14.03;;;8.10;99.90;;;;;;5055250;28;20214;-78
2023/12/17 02:12:28;;;;;;;24.70;14.30;;;8.10;99.90;;;;;;5054842;28;20176;-79
2023/12/17 02:14:53;;;;;;;19.03;13.90;;;8.10;99.90;;;;;;5055689;28;20211;-79
2023/12/17 02:17:27;;;;;;;24.73;14.23;;;8.10;99.90;;;;;;5055534;28;20190;-78
2023/12/17 02:19:53;;;;;;;23.83;14.37;;;8.10;99.90;;;;;;5055982;28;20217;-79
2023/12/17 02:22:18;;;;;;;26.77;14.27;;;8.10;99.90;;;;;;5055405;28;20175;-79
2023/12/17 02:24:44;;;;;;;24.97;14.17;;;8.10;99.90;;;;;;5055789;28;20184;-79
2023/12/17 02:27:10;;;;;;;22.57;14.17;;;8.00;99.90;;;;;;5055196;28;20172;-79
2023/12/17 02:29:38;;;;;;;20.80;13.10;;;8.10;99.90;;;;;;5055585;28;20252;-78
2023/12/17 02:32:04;;;;;;;20.07;13.73;;;8.10;99.90;;;;;;5055529;28;20225;-79
2023/12/17 02:34:30;;;;;;;27.33;12.97;;;8.20;99.90;;;;;;5055411;28;20203;-79
2023/12/17 02:36:55;;;;;;;18.37;13.37;;;8.10;99.90;;;;;;5055018;28;20670;-79
2023/12/17 02:39:21;;;;;;;21.13;12.93;;;8.00;99.90;;;;;;5055472;28;20732;-79
2023/12/17 02:41:46;;;;;;;22.83;14.00;;;8.00;99.90;;;;;;5037124;28;20184;-79
2023/12/17 02:44:12;;;;;;;22.87;13.27;;;8.10;99.90;;;;;;5055182;28;20183;-79
2023/12/17 02:46:37;;;;;;;26.03;14.50;;;8.10;99.90;;;;;;5054051;28;20171;-79
2023/12/17 02:49:03;;;;;;;19.93;13.00;;;8.00;99.90;;;;;;5055240;28;20222;-79
2023/12/17 02:51:28;;;;;;;21.10;14.37;;;8.00;99.90;;;;;;5055739;28;20171;-80
2023/12/17 02:53:54;;;;;;;22.70;13.97;;;8.00;99.90;;;;;;5054802;28;20183;-78
2023/12/17 02:56:19;;;;;;;22.33;13.67;;;8.00;99.90;;;;;;5055615;28;20203;-79
2023/12/17 02:58:45;;;;;;;21.47;13.13;;;8.00;99.90;;;;;;5055209;28;20192;-79
2023/12/17 03:01:10;;;;;;;22.50;14.23;;;8.00;99.90;;;;;;5057550;28;20195;-78
2023/12/17 03:03:36;;;;;;;23.87;14.70;;;8.00;99.90;;;;;;5073880;28;20183;-79
2023/12/17 03:06:01;;;;;;;24.70;14.63;;;8.00;99.90;;;;;;5079041;28;20167;-78
2023/12/17 03:08:27;;;;;;;23.70;14.57;;;8.10;99.90;;;;;;5078972;28;20198;-79
2023/12/17 03:10:52;;;;;;;19.13;13.50;;;8.00;99.90;;;;;;5079043;28;20178;-79
2023/12/17 03:13:18;;;;;;;22.70;14.63;;;8.00;99.90;;;;;;5073651;28;20553;-79
2023/12/17 03:15:44;;;;;;;21.47;13.87;;;8.00;99.90;;;;;;5059260;28;20194;-79
2023/12/17 03:18:11;;;;;;;21.80;14.40;;;8.00;99.90;;;;;;5059879;28;20187;-79
2023/12/17 03:20:37;;;;;;;22.80;14.13;;;8.00;99.90;;;;;;5059889;28;20202;-79
2023/12/17 03:23:02;;;;;;;23.83;14.77;;;8.00;99.90;;;;;;5063051;28;20171;-78
2023/12/17 03:25:28;;;;;;;21.47;14.10;;;8.10;99.90;;;;;;5064785;28;20180;-79
2023/12/17 03:27:53;;;;;;;28.07;15.80;;;8.10;99.90;;;;;;5060571;28;20585;-79
2023/12/17 03:30:19;;;;;;;22.20;14.87;;;8.00;99.90;;;;;;5040469;28;20190;-78
2023/12/17 03:32:45;;;;;;;23.80;14.13;;;8.00;99.90;;;;;;5058290;28;20245;-78
2023/12/17 03:35:10;;;;;;;31.10;14.50;;;8.00;99.90;;;;;;5059862;28;20274;-79
2023/12/17 03:37:36;;;;;;;20.87;14.33;;;8.10;99.90;;;;;;5059109;28;20172;-79
2023/12/17 03:40:01;;;;;;;22.23;13.83;;;8.00;99.90;;;;;;5059345;28;20184;-79
2023/12/17 03:42:27;;;;;;;21.07;14.10;;;8.00;99.90;;;;;;5059625;28;20512;-78
2023/12/17 03:44:52;;;;;;;24.60;13.97;;;8.10;99.90;;;;;;5059430;28;20565;-79
2023/12/17 03:47:18;;;;;;;19.97;13.43;;;8.00;99.90;;;;;;5059450;28;20568;-80
2023/12/17 03:49:43;;;;;;;17.93;13.63;;;8.10;99.90;;;;;;5059026;28;20234;-78
2023/12/17 03:52:08;;;;;;;20.67;13.03;;;8.10;99.90;;;;;;5058625;28;20254;-79
2023/12/17 03:54:34;;;;;;;21.40;13.60;;;8.00;99.90;;;;;;5058033;28;20207;-79
2023/12/17 03:57:00;;;;;;;21.63;13.70;;;8.00;99.90;;;;;;5058522;28;20699;-79
2023/12/17 03:59:25;;;;;;;23.80;13.87;;;8.00;99.90;;;;;;5058355;28;20195;-79
2023/12/17 04:01:50;;;;;;;19.77;12.93;;;8.00;99.90;;;;;;5058543;28;20187;-79
2023/12/17 04:04:16;;;;;;;25.17;13.23;;;8.00;99.90;;;;;;5058218;28;20176;-78
2023/12/17 04:06:43;;;;;;;19.20;13.13;;;8.00;99.90;;;;;;5058352;28;20175;-79
2023/12/17 04:09:09;;;;;;;21.83;13.27;;;8.00;99.90;;;;;;5057673;28;20505;-79
2023/12/17 04:11:34;;;;;;;22.13;13.07;;;8.00;99.90;;;;;;5057636;28;20180;-79
2023/12/17 04:14:01;;;;;;;19.20;12.97;;;8.00;99.90;;;;;;5059603;28;20171;-79
2023/12/17 04:16:27;;;;;;;19.93;13.03;;;8.00;99.90;;;;;;5061915;28;20568;-79
2023/12/17 04:18:52;;;;;;;19.27;12.67;;;8.00;99.90;;;;;;5058051;28;20219;-77
2023/12/17 04:21:18;;;;;;;19.50;12.43;;;8.00;99.90;;;;;;5057176;28;20179;-79
2023/12/17 04:23:44;;;;;;;18.80;12.67;;;8.00;99.90;;;;;;5057351;28;20175;-78
2023/12/17 04:26:11;;;;;;;20.20;12.57;;;8.00;99.90;;;;;;5057190;28;20255;-78
2023/12/17 04:28:37;;;;;;;19.87;12.13;;;8.00;99.90;;;;;;5056534;28;20584;-78
2023/12/17 04:31:02;;;;;;;16.80;12.10;;;8.00;99.90;;;;;;5056505;28;20175;-79
2023/12/17 04:33:28;;;;;;;20.17;12.67;;;7.90;99.90;;;;;;5057249;28;20198;-79
2023/12/17 04:35:53;;;;;;;21.03;13.10;;;8.00;99.90;;;;;;5059334;28;20207;-78
2023/12/17 04:38:19;;;;;;;18.03;11.93;;;8.00;99.90;;;;;;5057429;28;20184;-79
2023/12/17 04:40:46;;;;;;;20.53;12.43;;;7.90;99.90;;;;;;5056738;28;20183;-79
2023/12/17 04:43:12;;;;;;;16.33;12.07;;;8.00;99.90;;;;;;5056711;28;20263;-79
2023/12/17 04:45:37;;;;;;;17.13;11.53;;;7.90;99.90;;;;;;5057284;28;20212;-78
2023/12/17 04:48:03;;;;;;;19.03;12.00;;;7.90;99.90;;;;;;5056607;28;20183;-78
2023/12/17 04:50:29;;;;;;;15.37;11.77;;;7.90;99.90;;;;;;5056390;28;20190;-78
2023/12/17 04:52:54;;;;;;;20.50;11.63;;;7.90;99.90;;;;;;5056987;28;20176;-79
2023/12/17 04:55:20;;;;;;;19.07;12.27;;;7.90;99.90;;;;;;5056824;28;20282;-79
2023/12/17 04:57:45;;;;;;;15.80;12.07;;;7.90;99.90;;;;;;5056178;28;20167;-77
2023/12/17 05:00:11;;;;;;;20.23;13.00;;;7.90;99.90;;;;;;5055866;28;20176;-79
2023/12/17 05:02:37;;;;;;;16.80;12.30;;;7.90;99.90;;;;;;5056884;28;20592;-79
2023/12/17 05:05:03;;;;;;;19.47;12.77;;;7.90;99.90;;;;;;5073269;28;20232;-79
2023/12/17 05:07:29;;;;;;;17.87;12.97;;;7.80;99.90;;;;;;5076194;28;20167;-78
2023/12/17 05:09:55;;;;;;;17.00;12.87;;;7.80;99.90;;;;;;5075932;28;20199;-77
2023/12/17 05:12:20;;;;;;;16.73;12.77;;;7.80;99.90;;;;;;5076134;28;20205;-80
2023/12/17 05:14:46;;;;;;;16.17;12.57;;;7.80;99.90;;;;;;5074699;28;20215;-78
2023/12/17 05:17:11;;;;;;;19.57;12.30;;;7.80;99.90;;;;;;5076348;28;20179;-77
2023/12/17 05:19:37;;;;;;;19.60;13.47;;;7.80;99.90;;;;;;5068713;28;20195;-76
2023/12/17 05:22:02;;;;;;;16.73;12.43;;;7.80;99.90;;;;;;5053829;28;20176;-77
2023/12/17 05:24:28;;;;;;;17.63;12.13;;;7.80;99.90;;;;;;5054517;28;20176;-77
2023/12/17 05:26:54;;;;;;;16.47;11.93;;;7.80;99.90;;;;;;5054715;28;20172;-78
2023/12/17 05:29:19;;;;;;;19.40;13.60;;;7.80;99.90;;;;;;5054206;28;20295;-78
2023/12/17 05:31:44;;;;;;;18.00;12.47;;;7.80;99.90;;;;;;5054058;28;20184;-77
2023/12/17 05:34:10;;;;;;;15.20;12.40;;;7.70;99.90;;;;;;5054283;28;20175;-78
2023/12/17 05:36:36;;;;;;;20.83;12.90;;;7.70;99.90;;;;;;5055491;28;20206;-78
2023/12/17 05:39:01;;;;;;;16.27;11.83;;;7.70;99.90;;;;;;5074161;28;20187;-78
2023/12/17 05:41:27;;;;;;;16.07;11.83;;;7.70;99.90;;;;;;5073987;28;20266;-77
2023/12/17 05:43:52;;;;;;;18.40;12.03;;;7.70;99.90;;;;;;5073379;28;20201;-76
2023/12/17 05:46:18;;;;;;;19.40;12.13;;;7.70;99.90;;;;;;5060711;28;20195;-77
2023/12/17 05:48:43;;;;;;;21.40;12.63;;;7.70;99.90;;;;;;5053673;28;20203;-77
2023/12/17 05:51:09;;;;;;;17.57;12.37;;;7.70;99.90;;;;;;5053575;28;20205;-77
2023/12/17 05:53:34;;;;;;;18.87;13.47;;;7.60;99.90;;;;;;5053551;28;20214;-77
2023/12/17 05:56:00;;;;;;;20.97;12.97;;;7.70;99.90;;;;;;5053381;28;20589;-77
2023/12/17 05:58:25;;;;;;;20.83;12.77;;;7.70;99.90;;;;;;5053305;28;20199;-78
2023/12/17 06:00:51;;;;;;;19.43;12.63;;;7.70;99.90;;;;;;5059855;28;20175;-77
2023/12/17 06:03:16;;;;;;;14.77;12.27;;;7.70;99.90;;;;;;5053808;28;20247;-77
2023/12/17 06:05:42;;;;;;;17.73;11.70;;;7.70;99.90;;;;;;5054633;28;20539;-77
2023/12/17 06:08:07;;;;;;;17.83;11.77;;;7.60;99.90;;;;;;5054144;28;20203;-77
2023/12/17 06:10:33;;;;;;;16.90;12.80;;;7.60;99.90;;;;;;5054537;28;20172;-77
2023/12/17 06:12:59;;;;;;;16.13;11.07;;;7.60;99.90;;;;;;5053915;28;20183;-77
2023/12/17 06:15:24;;;;;;;17.50;12.30;;;7.60;99.90;;;;;;5053580;28;20218;-77
2023/12/17 06:17:50;;;;;;;19.27;11.80;;;7.60;99.90;;;;;;5054328;28;20255;-78
2023/12/17 06:20:16;;;;;;;18.77;11.57;;;7.60;99.90;;;;;;5055818;28;20207;-77
2023/12/17 06:22:41;;;;;;;15.50;11.27;;;7.60;99.90;;;;;;5057017;28;20183;-77
2023/12/17 06:25:07;;;;;;;20.93;11.43;;;7.60;99.90;;;;;;5062244;28;20191;-77
2023/12/17 06:27:34;;;;;;;17.80;11.60;;;7.60;99.90;;;;;;5057377;28;20187;-77
2023/12/17 06:30:00;;;;;;;19.07;11.83;;;7.60;99.90;;;;;;5053438;28;20206;-77
2023/12/17 06:32:25;;;;;;;20.13;11.50;;;7.60;99.90;;;;;;5053399;28;20217;-78
2023/12/17 06:34:51;;;;;;;20.77;12.23;;;7.60;99.90;;;;;;5053542;28;20253;-77
2023/12/17 06:37:16;;;;;;;16.67;11.53;;;7.50;99.90;;;;;;5057365;28;20179;-78
2023/12/17 06:39:42;;;;;;;17.50;12.13;;;7.50;99.90;;;;;;5057636;28;20191;-78
2023/12/17 06:42:11;;;;;;;18.57;11.53;;;7.50;99.90;;;;;;5057727;28;20178;-77
2023/12/17 06:44:37;;;;;;;18.10;10.87;;;7.50;99.90;;;;;;5057776;28;20167;-77
2023/12/17 06:47:03;;;;;;;18.37;10.63;;;7.50;99.90;;;;;;5061511;28;20185;-79
2023/12/17 06:49:30;;;;;;;14.03;10.20;;;7.50;99.90;;;;;;5062397;28;20213;-78
2023/12/17 06:51:55;;;;;;;15.37;11.27;;;7.50;99.90;;;;;;5058043;28;20187;-78
2023/12/17 06:54:21;;;;;;;21.87;12.33;;;7.50;99.90;;;;;;5040913;28;20596;-77
2023/12/17 06:56:46;;;;;;;18.93;11.37;;;7.50;99.90;;;;;;5058940;28;20658;-77
2023/12/17 06:59:12;;;;;;;18.67;10.23;;;7.50;99.90;;;;;;5058366;28;20191;-77
2023/12/17 07:01:37;;;;;;;16.17;11.57;;;7.50;99.90;;;;;;5058212;28;20171;-78
2023/12/17 07:04:03;;;;;;;16.83;11.60;;;7.50;99.90;;;;;;5060665;28;20659;-78
2023/12/17 07:06:30;;;;;;;15.67;11.10;;;7.50;99.90;;;;;;5057626;28;20187;-77
2023/12/17 07:08:56;;;;;;;19.60;10.93;;;7.50;99.90;;;;;;5057315;28;20237;-78
2023/12/17 07:11:22;;;;;;;16.63;10.47;;;7.50;99.90;;;;;;5056846;28;20777;-77
2023/12/17 07:13:49;;;;;;;17.57;10.90;;;7.50;99.90;;;;;;5056453;28;20544;-77
2023/12/17 07:16:25;;;;;;;17.97;11.27;;;7.50;99.90;;;;;;5056534;28;20238;-78
2023/12/17 07:18:51;;;;;;;15.97;10.27;;;7.50;99.90;;;;;;5056708;28;20686;-76
2023/12/17 07:21:17;;;;;;;15.60;10.77;;;7.40;99.90;;;;;;5056688;28;20168;-78
2023/12/17 07:23:42;;;;;;;15.77;10.63;;;7.40;99.90;;;;;;5056517;28;20210;-77
2023/12/17 07:26:08;;;;;;;17.63;9.80;;;7.50;99.90;;;;;;5056896;28;20175;-77
2023/12/17 07:28:33;;;;;;;14.10;9.17;;;7.40;99.90;;;;;;5056871;28;20206;-78
2023/12/17 07:30:59;;;;;;;16.73;9.57;;;7.40;99.90;;;;;;5056407;28;20171;-77
2023/12/17 07:33:24;;;;;;;14.60;9.87;;;7.40;99.90;;;;;;5056526;28;20258;-77
2023/12/17 07:35:50;;;;;;;15.23;9.37;;;7.40;99.90;;;;;;5057935;28;20252;-77
2023/12/17 07:38:16;;;;;;;14.17;8.97;;;7.40;99.90;;;;;;5069393;28;20202;-77
2023/12/17 07:40:42;;;;;;;15.53;8.97;;;7.30;99.90;;;;;;5076452;28;20197;-78
2023/12/17 07:43:07;;;;;;;12.23;8.40;;;7.30;99.90;;;;;;5076358;28;20171;-76
2023/12/17 07:45:34;;;;;;;15.73;8.57;;;7.40;99.90;;;;;;5077865;28;20171;-80
2023/12/17 07:47:59;;;;;;;15.73;8.60;;;7.30;99.90;;;;;;5075766;28;20174;-77
2023/12/17 07:50:25;;;;;;;13.90;8.87;;;7.30;99.90;;;;;;5079204;28;20171;-77
2023/12/17 07:52:50;;;;;;;13.07;8.13;;;7.30;99.90;;;;;;5069615;28;20191;-77
2023/12/17 07:55:16;;;;;;;17.27;8.33;;;7.30;99.90;;;;;;5063778;28;20206;-77
2023/12/17 07:57:42;;;;;;;13.20;8.37;;;7.30;99.90;;;;;;5057653;28;20179;-78
2023/12/17 08:00:08;;;;;;;11.57;8.00;;;7.30;99.90;;;;;;5038604;28;20202;-78
2023/12/17 08:02:34;;;;;;;12.57;8.43;;;7.30;99.90;;;;;;5058036;28;20186;-78
2023/12/17 08:04:59;;;;;;;11.60;7.60;;;7.30;99.90;;;;;;5056989;28;20235;-76
2023/12/17 08:07:25;;;;;;;12.77;8.27;;;7.30;99.90;;;;;;5055181;28;20179;-77
2023/12/17 08:09:50;;;;;;;13.47;8.80;;;7.30;99.90;;;;;;5055320;28;20203;-77
2023/12/17 08:12:16;;;;;;;12.60;7.87;;;7.30;99.90;;;;;;5054448;28;20206;-77
2023/12/17 08:14:41;;;;;;;10.47;7.37;;;7.30;99.90;;;;;;5055975;28;20245;-77
2023/12/17 08:17:07;;;;;;;11.33;7.23;;;7.30;99.90;;;;;;5057301;28;20199;-77
2023/12/17 08:19:33;;;;;;;11.73;7.37;;;7.30;99.90;;;;;;5056812;28;20195;-78
2023/12/17 08:21:58;;;;;;;13.47;8.10;;;7.20;99.90;;;;;;5057363;28;20168;-78
2023/12/17 08:24:24;;;;;;;13.63;7.37;;;7.30;99.90;;;;;;5056609;28;20180;-78
2023/12/17 08:26:50;;;;;;;10.90;7.50;;;7.20;99.90;;;;;;5056191;28;20260;-77
2023/12/17 08:29:17;;;;;;;10.87;7.70;;;7.20;99.90;;;;;;5057812;28;20200;-76
2023/12/17 08:31:44;;;;;;;12.97;8.20;;;7.20;99.90;;;;;;5058129;28;20198;-78
2023/12/17 08:34:10;;;;;;;16.13;8.40;;;7.20;99.90;;;;;;5060587;28;20179;-77
2023/12/17 08:36:36;;;;;;;12.13;7.73;;;7.10;99.90;;;;;;5058400;28;20210;-77
2023/12/17 08:39:02;;;;;;;10.27;7.13;;;7.10;99.90;;;;;;5055991;28;20218;-78
2023/12/17 08:41:31;;;;;;;12.43;7.43;;;7.10;99.90;;;;;;5056080;28;20182;-77
2023/12/17 08:43:56;;;;;;;11.40;7.60;;;7.00;99.90;;;;;;5056568;28;20258;-78
2023/12/17 08:46:22;;;;;;;11.17;7.67;;;7.00;99.90;;;;;;5062666;28;20702;-79
2023/12/17 08:48:47;;;;;;;12.37;8.10;;;7.10;99.90;;;;;;5064245;28;20188;-78
2023/12/17 08:51:13;;;;;;;11.60;8.00;;;7.10;99.90;;;;;;5062464;28;20659;-78
2023/12/17 08:53:41;;;;;;;10.53;7.33;;;7.10;99.90;;;;;;5060936;28;20176;-78
2023/12/17 08:56:08;;;;;;;10.47;7.47;;;7.10;99.90;;;;;;5059104;28;20191;-77
2023/12/17 08:58:34;;;;;;;9.50;7.30;;;7.10;99.90;;;;;;5037582;28;20191;-77
2023/12/17 09:00:59;;;;;;;9.93;7.73;;;7.10;99.90;;;;;;5058309;28;20234;-77
2023/12/17 09:03:25;;;;;;;10.87;7.70;;;7.10;99.90;;;;;;5056260;28;20171;-77
2023/12/17 09:05:50;;;;;;;9.27;7.40;;;7.20;99.90;;;;;;5057967;28;20305;-78
2023/12/17 09:08:16;;;;;;;13.83;7.80;;;7.20;99.90;;;;;;5058407;28;20223;-78
2023/12/17 09:10:41;;;;;;;11.17;8.17;;;7.20;99.90;;;;;;5056198;28;20186;-77
2023/12/17 09:13:09;;;;;;;10.80;7.67;;;7.10;99.90;;;;;;5053835;28;20190;-77
2023/12/17 09:15:35;;;;;;;10.50;7.97;;;7.10;99.90;;;;;;5053355;28;20195;-78
2023/12/17 09:18:02;;;;;;;13.00;8.30;;;7.20;99.90;;;;;;5053068;28;20392;-77
2023/12/17 09:20:28;;;;;;;12.63;8.67;;;7.20;99.90;;;;;;5055398;28;20179;-78
2023/12/17 09:22:53;;;;;;;12.97;8.90;;;7.20;99.90;;;;;;5055017;28;20171;-79
2023/12/17 09:25:19;;;;;;;12.40;8.70;;;7.20;99.90;;;;;;5054107;28;20231;-78
2023/12/17 09:27:45;;;;;;;13.53;9.00;;;7.20;99.90;;;;;;5054477;28;20180;-78
2023/12/17 09:30:11;;;;;;;15.27;9.80;;;7.20;99.90;;;;;;5054087;28;20191;-76
2023/12/17 09:32:36;;;;;;;13.47;9.57;;;7.20;99.90;;;;;;5054404;28;20191;-77
2023/12/17 09:35:02;;;;;;;16.10;10.33;;;7.20;99.90;;;;;;5054405;28;20205;-78
2023/12/17 09:37:28;;;;;;;14.50;10.00;;;7.20;99.90;;;;;;5053552;28;20536;-77
2023/12/17 09:39:55;;;;;;;15.13;10.37;;;7.20;99.90;;;;;;5054156;28;20226;-79
2023/12/17 09:42:20;;;;;;;18.73;11.60;;;7.20;99.90;;;;;;5054197;28;20274;-79
2023/12/17 09:44:46;;;;;;;15.37;10.83;;;7.20;99.90;;;;;;5054095;28;20179;-80
2023/12/17 09:47:12;;;;;;;12.60;9.60;;;7.20;99.90;;;;;;5036588;28;20185;-79
2023/12/17 09:49:37;;;;;;;16.67;10.70;;;7.20;99.90;;;;;;5036386;28;20573;-79
2023/12/17 09:52:11;;;;;;;17.17;11.20;;;7.20;99.90;;;;;;5054618;28;20175;-79
2023/12/17 09:54:37;;;;;;;16.07;10.37;;;7.30;99.90;;;;;;5053721;28;20620;-80
2023/12/17 09:57:07;;;;;;;20.57;11.00;;;7.30;99.90;;;;;;5054043;28;20175;-80
2023/12/17 09:59:33;;;;;;;14.77;10.60;;;7.30;99.90;;;;;;5055781;28;20620;-81
2023/12/17 10:01:58;;;;;;;15.83;10.13;;;7.30;99.90;;;;;;5054249;28;20203;-80
2023/12/17 10:04:25;;;;;;;18.20;11.30;;;7.30;99.90;;;;;;5054087;28;20194;-80
2023/12/17 10:06:53;;;;;;;20.43;12.13;;;7.40;99.90;;;;;;5036068;28;20211;-80
2023/12/17 10:09:19;;;;;;;20.33;12.27;;;7.30;99.90;;;;;;5036586;28;20574;-79
2023/12/17 10:11:45;;;;;;;18.07;11.83;;;7.30;99.90;;;;;;5036382;28;20179;-80
2023/12/17 10:14:25;;;;;;;18.40;12.53;;;7.30;99.90;;;;;;5061814;28;20183;-80
2023/12/17 10:16:51;;;;;;;15.93;11.90;;;7.30;99.90;;;;;;5073381;28;20646;-80
2023/12/17 10:19:17;;;;;;;16.87;12.13;;;7.30;99.90;;;;;;5064620;28;20261;-80
2023/12/17 10:21:42;;;;;;;18.17;12.13;;;7.30;99.90;;;;;;5054856;28;20200;-80
2023/12/17 10:24:09;;;;;;;15.67;11.33;;;7.40;99.90;;;;;;5049235;28;20225;-79
2023/12/17 10:26:42;;;;;;;15.73;10.87;;;7.40;99.90;;;;;;5064781;28;20561;-79
2023/12/17 10:29:14;;;;;;;18.33;12.00;;;7.30;99.90;;;;;;5063906;28;20253;-79
2023/12/17 10:31:41;;;;;;;19.40;11.37;;;7.30;99.90;;;;;;5052677;28;20217;-78
2023/12/17 10:34:18;;;;;;;18.10;11.53;;;7.30;99.90;;;;;;5066365;28;20245;-78
2023/12/17 10:36:48;;;;;;;16.73;10.43;;;7.30;99.90;;;;;;5053608;28;20623;-78
2023/12/17 10:39:19;;;;;;;14.40;10.73;;;7.30;99.90;;;;;;5054147;28;20192;-78
2023/12/17 10:41:46;;;;;;;14.63;10.87;;;7.30;99.90;;;;;;5055456;28;20306;-78
2023/12/17 10:44:14;;;;;;;15.23;10.33;;;7.30;99.90;;;;;;5056609;28;20168;-78
2023/12/17 10:46:44;;;;;;;13.83;9.97;;;7.20;99.90;;;;;;5053570;28;20203;-78
2023/12/17 10:49:11;;;;;;;13.77;9.80;;;7.20;99.90;;;;;;5066314;28;20700;-78
2023/12/17 10:51:41;;;;;;;14.00;9.87;;;7.20;99.90;;;;;;5073216;28;20206;-78
2023/12/17 10:54:08;;;;;;;13.30;9.90;;;7.20;99.90;;;;;;5059476;28;20191;-77
2023/12/17 10:56:37;;;;;;;12.90;9.93;;;7.20;99.90;;;;;;5052633;28;20199;-77
2023/12/17 10:59:08;;;;;;;13.47;9.77;;;7.20;99.90;;;;;;5052981;28;20207;-78
2023/12/17 11:01:36;;;;;;;17.50;11.03;;;7.10;99.90;;;;;;5052892;28;20237;-78
2023/12/17 11:04:03;;;;;;;16.37;10.90;;;7.00;99.90;;;;;;5072689;28;20266;-78
2023/12/17 11:06:29;;;;;;;14.23;10.83;;;7.00;99.90;;;;;;5055244;28;20270;-78
2023/12/17 11:08:54;;;;;;;15.73;11.10;;;7.00;99.90;;;;;;5072737;28;20227;-77
2023/12/17 11:11:22;;;;;;;15.57;11.10;;;7.00;99.90;;;;;;5072548;28;20172;-78
2023/12/17 11:13:48;;;;;;;14.33;11.27;;;7.10;99.90;;;;;;5072908;28;20654;-78
2023/12/17 11:16:24;;;;;;;16.13;12.40;;;7.10;99.90;;;;;;5060425;28;20195;-78
2023/12/17 11:18:50;;;;;;;18.07;12.53;;;7.10;99.90;;;;;;5052742;28;20253;-78
2023/12/17 11:21:17;;;;;;;16.73;12.00;;;7.00;99.90;;;;;;5053502;28;20175;-77
2023/12/17 11:23:47;;;;;;;15.37;11.73;;;7.00;99.90;;;;;;5056549;28;20208;-78
2023/12/17 11:26:12;;;;;;;15.70;11.73;;;7.00;99.90;;;;;;5055769;28;20190;-77
2023/12/17 11:28:38;;;;;;;16.70;13.23;;;7.00;99.90;;;;;;5055440;28;20192;-78
2023/12/17 11:31:04;;;;;;;19.50;13.63;;;7.00;99.90;;;;;;5055295;28;20262;-78
2023/12/17 11:33:32;;;;;;;18.60;13.00;;;7.00;99.90;;;;;;5055764;28;20540;-78
2023/12/17 11:35:59;;;;;;;19.73;13.97;;;7.00;99.90;;;;;;5055581;28;20203;-78
2023/12/17 11:38:26;;;;;;;20.70;14.50;;;7.10;99.90;;;;;;5055067;28;20203;-78
2023/12/17 11:40:53;;;;;;;18.77;13.93;;;7.10;99.90;;;;;;5057015;28;20172;-79
2023/12/17 11:43:23;;;;;;;14.70;11.47;;;7.10;99.90;;;;;;5057497;28;20171;-79
2023/12/17 11:45:49;;;;;;;14.43;10.37;;;7.10;99.90;;;;;;5056809;28;20217;-82
2023/12/17 11:48:20;;;;;;;12.77;10.07;;;7.10;99.90;;;;;;5056111;28;20641;-77
2023/12/17 11:50:58;;;;;;;13.10;9.80;;;7.10;99.90;;;;;;5055819;28;20166;-77
2023/12/17 11:53:25;;;;;;;12.20;9.03;;;7.10;99.90;;;;;;5078382;28;20226;-77
2023/12/17 11:55:51;;;;;;;12.63;9.47;;;7.10;99.90;;;;;;5081563;28;20190;-78
2023/12/17 11:58:21;;;;;;;12.83;9.43;;;7.10;99.90;;;;;;5088277;28;20183;-79
2023/12/17 12:01:06;;;;;;;10.73;8.40;;;7.10;99.90;;;;;;5076391;28;20159;-77
2023/12/17 12:03:32;;;;;;;11.70;8.57;;;7.10;99.90;;;;;;5076491;28;20181;-79
2023/12/17 12:05:59;;;;;;;10.13;8.13;;;7.10;99.90;;;;;;5064666;28;20623;-79
2023/12/17 12:08:26;;;;;;;10.37;8.27;;;7.10;99.90;;;;;;5055731;28;20345;-76
2023/12/17 12:10:52;;;;;;;12.67;8.20;;;7.20;99.90;;;;;;5054411;28;20179;-78
2023/12/17 12:13:18;;;;;;;11.13;7.90;;;7.20;99.90;;;;;;5054466;28;20191;-76
2023/12/17 12:15:43;;;;;;;10.63;8.10;;;7.20;99.90;;;;;;5053991;28;20282;-77
2023/12/17 12:18:21;;;;;;;10.77;8.20;;;7.20;99.90;;;;;;5054503;28;20595;-77
2023/12/17 12:20:48;;;;;;;11.40;8.50;;;7.30;99.90;;;;;;5055040;28;20172;-77
2023/12/17 12:23:14;;;;;;;11.17;7.97;;;7.30;99.90;;;;;;5072901;28;20264;-77
2023/12/17 12:25:40;;;;;;;10.87;8.33;;;7.30;99.90;;;;;;5074939;28;20183;-77
2023/12/17 12:28:14;;;;;;;11.93;8.77;;;7.30;99.90;;;;;;5074730;28;20635;-77
2023/12/17 12:30:39;;;;;;;12.33;7.83;;;7.40;99.90;;;;;;5075001;28;20161;-77
2023/12/17 12:33:10;;;;;;;10.67;8.20;;;7.40;99.90;;;;;;5074986;28;20209;-77
2023/12/17 12:35:37;;;;;;;13.77;8.67;;;7.40;99.90;;;;;;5071056;28;20211;-78